Time;durP1;ratioP1;P1;durP2;ratioP2;P2;SDS_P1;SDS_P2;PMS_P1;PMS_P2;Temp;Humidity;BMP_temperature;BMP_pressure;BME280_temperature;BME280_humidity;BME280_pressure;Samples;Min_cycle;Max_cycle;Signal;HPM_P1;HPM_P2
2022/10/19 00:01:20;;;;;;;;;;;;;;;8.53;56.63;95855.31;5035909;28;974;-64
2022/10/19 00:03:48;;;;;;;;;;;;;;;8.65;56.51;95850.78;5036390;28;1251;-65
2022/10/19 00:06:16;;;;;;;;;;;;;;;8.74;56.11;95854.47;5035649;28;1061;-65
2022/10/19 00:08:43;;;;;;;;;;;;;;;8.67;56.05;95847.97;5035768;28;1162;-65
2022/10/19 00:11:10;;;;;;;;;;;;;;;8.53;56.27;95852.66;5035541;28;1903;-65
2022/10/19 00:13:36;;;;;;;;;;;;;;;8.52;56.27;95850.16;5035463;28;1340;-65
2022/10/19 00:16:06;;;;;;;;;;;;;;;8.40;56.60;95847.53;5035651;28;1461;-65
2022/10/19 00:18:32;;;;;;;;;;;;;;;8.49;56.63;95845.91;5035588;28;1074;-65
2022/10/19 00:21:07;;;;;;;;;;;;;;;8.48;56.61;95843.38;5050997;28;1024;-65
2022/10/19 00:23:33;;;;;;;;;;;;;;;8.41;56.76;95843.03;5035509;28;1088;-64
2022/10/19 00:25:59;;;;;;;;;;;;;;;8.43;56.93;95832.28;5035444;28;1013;-65
2022/10/19 00:28:25;;;;;;;;;;;;;;;8.44;56.58;95837.44;5035311;28;1044;-65
2022/10/19 00:30:52;;;;;;;;;;;;;;;8.50;56.90;95834.28;5035482;28;1902;-65
2022/10/19 00:33:20;;;;;;;;;;;;;;;8.61;55.91;95830.69;5035178;28;1100;-65
2022/10/19 00:35:50;;;;;;;;;;;;;;;8.44;56.19;95832.13;5035263;28;1041;-65
2022/10/19 00:38:18;;;;;;;;;;;;;;;8.21;56.84;95820.72;5035145;28;977;-65
2022/10/19 00:40:44;;;;;;;;;;;;;;;8.12;56.98;95825.03;5035126;28;1053;-65
2022/10/19 00:43:14;;;;;;;;;;;;;;;8.22;56.88;95833.09;5034989;28;968;-65
2022/10/19 00:45:40;;;;;;;;;;;;;;;8.29;56.84;95826.28;5035032;28;1096;-65
2022/10/19 00:48:08;;;;;;;;;;;;;;;8.36;56.75;95819.41;5035066;28;1056;-65
2022/10/19 00:50:35;;;;;;;;;;;;;;;8.49;56.60;95807.75;5034864;28;1906;-65
2022/10/19 00:53:01;;;;;;;;;;;;;;;8.38;56.66;95804.19;5033833;28;1047;-65
2022/10/19 00:55:27;;;;;;;;;;;;;;;8.49;56.42;95802.44;5034824;28;1021;-65
2022/10/19 00:57:53;;;;;;;;;;;;;;;8.40;56.35;95798.69;5034815;28;1109;-65
2022/10/19 01:00:19;;;;;;;;;;;;;;;8.28;56.37;95789.94;5034674;28;1058;-64
2022/10/19 01:02:45;;;;;;;;;;;;;;;7.95;57.06;95796.31;5034873;28;989;-64
2022/10/19 01:05:12;;;;;;;;;;;;;;;7.99;57.69;95790.59;5034746;28;965;-65
2022/10/19 01:07:38;;;;;;;;;;;;;;;8.07;57.57;95789.13;5034636;28;1154;-65
2022/10/19 01:10:04;;;;;;;;;;;;;;;7.99;56.89;95787.09;5034526;28;1125;-64
2022/10/19 01:12:36;;;;;;;;;;;;;;;8.03;57.01;95783.19;5034516;28;1914;-65
2022/10/19 01:15:26;;;;;;;;;;;;;;;8.06;56.77;95790.06;5034522;28;1109;-64
2022/10/19 01:17:52;;;;;;;;;;;;;;;7.80;57.18;95785.97;5034604;28;997;-65
2022/10/19 01:20:36;;;;;;;;;;;;;;;7.59;57.67;95787.78;5034398;28;957;-64
2022/10/19 01:23:02;;;;;;;;;;;;;;;7.58;58.02;95786.06;5034597;28;1054;-65
2022/10/19 01:25:41;;;;;;;;;;;;;;;7.63;57.83;95782.06;5034360;28;997;-65
2022/10/19 01:28:18;;;;;;;;;;;;;;;7.72;57.29;95782.25;5034164;28;1089;-64
2022/10/19 01:30:44;;;;;;;;;;;;;;;7.68;57.62;95775.50;5034144;28;1906;-64
2022/10/19 01:33:19;;;;;;;;;;;;;;;7.74;57.61;95780.31;5033975;28;1061;-64
2022/10/19 01:35:51;;;;;;;;;;;;;;;7.80;57.42;95775.31;5034318;28;1025;-65
2022/10/19 01:38:20;;;;;;;;;;;;;;;7.69;57.29;95772.72;5033644;28;1049;-64
2022/10/19 01:41:04;;;;;;;;;;;;;;;7.66;57.12;95766.81;5034142;28;1058;-64
2022/10/19 01:43:50;;;;;;;;;;;;;;;7.60;57.58;95766.34;5033890;28;1020;-64
2022/10/19 01:46:35;;;;;;;;;;;;;;;7.68;57.29;95757.72;5034075;28;1048;-64
2022/10/19 01:49:03;;;;;;;;;;;;;;;7.69;57.15;95756.75;5033963;28;1017;-65
2022/10/19 01:51:32;;;;;;;;;;;;;;;7.49;57.38;95753.06;5033754;28;2369;-65
2022/10/19 01:54:03;;;;;;;;;;;;;;;7.33;57.90;95752.69;5033770;28;1045;-65
2022/10/19 01:56:30;;;;;;;;;;;;;;;7.38;57.70;95748.66;5033897;28;970;-65
2022/10/19 01:58:57;;;;;;;;;;;;;;;7.40;57.86;95751.19;5033879;28;1001;-65
2022/10/19 02:01:26;;;;;;;;;;;;;;;7.45;57.36;95743.66;5033700;28;958;-64
2022/10/19 02:03:53;;;;;;;;;;;;;;;7.45;57.59;95750.81;5033832;28;1001;-65
2022/10/19 02:06:19;;;;;;;;;;;;;;;7.58;57.30;95740.81;5033540;28;985;-64
2022/10/19 02:08:47;;;;;;;;;;;;;;;7.48;57.32;95745.25;5033428;28;1165;-65
2022/10/19 02:11:14;;;;;;;;;;;;;;;7.35;57.75;95740.09;5033644;28;1906;-65
2022/10/19 02:13:41;;;;;;;;;;;;;;;7.34;57.96;95741.03;5033119;28;1114;-65
2022/10/19 02:16:13;;;;;;;;;;;;;;;7.45;57.80;95743.66;5031636;28;981;-65
2022/10/19 02:18:43;;;;;;;;;;;;;;;7.48;57.41;95737.25;5032720;28;1128;-63
2022/10/19 02:21:09;;;;;;;;;;;;;;;7.50;57.13;95741.47;5032613;28;1028;-64
2022/10/19 02:23:35;;;;;;;;;;;;;;;7.38;57.50;95739.81;5032872;28;965;-64
2022/10/19 02:26:02;;;;;;;;;;;;;;;7.36;57.48;95733.78;5032776;28;1048;-65
2022/10/19 02:28:28;;;;;;;;;;;;;;;7.43;57.15;95732.31;5032695;28;1204;-65
2022/10/19 02:30:55;;;;;;;;;;;;;;;7.39;57.01;95738.84;5032561;28;1902;-64
2022/10/19 02:33:21;;;;;;;;;;;;;;;7.41;57.02;95742.22;5032536;28;989;-65
2022/10/19 02:35:47;;;;;;;;;;;;;;;7.32;57.29;95737.66;5032426;28;1031;-65
2022/10/19 02:38:15;;;;;;;;;;;;;;;7.26;57.57;95743.50;5032599;28;1056;-64
2022/10/19 02:40:43;;;;;;;;;;;;;;;7.30;57.50;95744.94;5031452;28;1220;-64
2022/10/19 02:43:11;;;;;;;;;;;;;;;7.19;57.44;95745.81;5032390;28;1018;-65
2022/10/19 02:45:42;;;;;;;;;;;;;;;7.09;57.74;95751.03;5032491;28;1024;-65
2022/10/19 02:48:16;;;;;;;;;;;;;;;7.16;57.94;95746.91;5031155;28;997;-65
2022/10/19 02:50:46;;;;;;;;;;;;;;;7.41;57.88;95742.22;5035117;28;1902;-64
2022/10/19 02:53:13;;;;;;;;;;;;;;;7.36;57.42;95739.09;5035946;28;1028;-65
2022/10/19 02:55:39;;;;;;;;;;;;;;;7.05;58.09;95741.63;5035951;28;989;-64
2022/10/19 02:58:05;;;;;;;;;;;;;;;7.08;58.04;95748.53;5035838;28;1051;-65
2022/10/19 03:00:31;;;;;;;;;;;;;;;7.09;57.98;95743.06;5035771;28;1094;-65
2022/10/19 03:02:57;;;;;;;;;;;;;;;7.03;57.75;95738.25;5035539;28;1120;-65
2022/10/19 03:05:23;;;;;;;;;;;;;;;7.21;58.08;95743.91;5035759;28;1140;-64
2022/10/19 03:07:49;;;;;;;;;;;;;;;7.46;57.60;95733.88;5035704;28;1165;-64
2022/10/19 03:10:15;;;;;;;;;;;;;;;7.40;57.23;95738.75;5035630;28;1048;-65
2022/10/19 03:12:42;;;;;;;;;;;;;;;7.34;57.32;95722.41;5027845;28;261410;-65
2022/10/19 03:15:09;;;;;;;;;;;;;;;7.11;57.46;95727.81;5050430;28;1024;-65
2022/10/19 03:17:35;;;;;;;;;;;;;;;7.04;57.75;95729.31;5036680;28;1057;-64
2022/10/19 03:20:03;;;;;;;;;;;;;;;7.09;57.71;95727.09;5036628;28;1113;-64
2022/10/19 03:22:29;;;;;;;;;;;;;;;7.07;57.50;95737.03;5036504;28;1058;-65
2022/10/19 03:24:55;;;;;;;;;;;;;;;6.98;57.94;95732.44;5036573;28;1049;-64
2022/10/19 03:27:21;;;;;;;;;;;;;;;7.08;57.52;95727.25;5036533;28;1033;-65
2022/10/19 03:29:47;;;;;;;;;;;;;;;6.96;57.89;95729.94;5036563;28;1017;-65
2022/10/19 03:32:13;;;;;;;;;;;;;;;6.78;58.03;95726.94;5036202;28;1908;-65
2022/10/19 03:34:40;;;;;;;;;;;;;;;6.86;57.75;95733.47;5036662;28;1095;-64
2022/10/19 03:37:07;;;;;;;;;;;;;;;6.97;57.66;95739.59;5036346;28;1049;-65
2022/10/19 03:39:33;;;;;;;;;;;;;;;6.80;57.91;95737.47;5036288;28;1038;-64
2022/10/19 03:41:59;;;;;;;;;;;;;;;6.75;57.94;95723.69;5036426;28;993;-63
2022/10/19 03:44:25;;;;;;;;;;;;;;;6.64;57.87;95730.72;5036245;28;1085;-64
2022/10/19 03:46:51;;;;;;;;;;;;;;;6.82;57.73;95731.03;5036650;28;1049;-64
2022/10/19 03:49:17;;;;;;;;;;;;;;;6.75;57.43;95726.34;5036013;28;1001;-64
2022/10/19 03:51:43;;;;;;;;;;;;;;;6.68;57.45;95731.31;5036029;28;1914;-64
2022/10/19 03:54:11;;;;;;;;;;;;;;;6.65;57.97;95724.41;5036132;28;1025;-64
2022/10/19 03:56:37;;;;;;;;;;;;;;;6.50;58.15;95724.81;5035971;28;1128;-64
2022/10/19 03:59:04;;;;;;;;;;;;;;;6.50;58.63;95716.84;5036048;28;974;-64
2022/10/19 04:01:35;;;;;;;;;;;;;;;6.66;57.99;95719.97;5035300;28;930;-64
2022/10/19 04:04:03;;;;;;;;;;;;;;;6.61;57.96;95717.66;5036092;28;974;-64
2022/10/19 04:06:31;;;;;;;;;;;;;;;6.55;57.87;95728.78;5035919;28;974;-64
2022/10/19 04:08:57;;;;;;;;;;;;;;;6.52;57.84;95722.88;5035788;28;1162;-65
2022/10/19 04:11:25;;;;;;;;;;;;;;;6.47;58.04;95720.59;5035590;28;1930;-64
2022/10/19 04:13:51;;;;;;;;;;;;;;;6.55;57.73;95727.97;5035506;28;1110;-64
2022/10/19 04:16:19;;;;;;;;;;;;;;;6.55;57.75;95728.78;5035494;28;1151;-65
2022/10/19 04:18:45;;;;;;;;;;;;;;;6.44;57.80;95729.63;5035992;28;958;-64
2022/10/19 04:21:25;;;;;;;;;;;;;;;6.54;57.63;95728.91;5035442;28;1239;-65
2022/10/19 04:23:53;;;;;;;;;;;;;;;6.67;57.24;95721.66;5035580;28;1045;-65
2022/10/19 04:26:19;;;;;;;;;;;;;;;6.67;57.22;95719.00;5035343;28;1100;-65
2022/10/19 04:28:45;;;;;;;;;;;;;;;6.67;57.11;95719.00;5035350;28;1065;-65
2022/10/19 04:31:12;;;;;;;;;;;;;;;6.70;57.55;95724.06;5035245;28;1914;-64
2022/10/19 04:33:38;;;;;;;;;;;;;;;6.60;57.37;95710.69;5035519;28;1040;-65
2022/10/19 04:36:06;;;;;;;;;;;;;;;6.55;58.07;95717.31;5050649;28;1083;-63
2022/10/19 04:38:32;;;;;;;;;;;;;;;6.60;57.77;95709.81;5035313;28;981;-63
2022/10/19 04:41:03;;;;;;;;;;;;;;;6.73;57.74;95718.50;5035255;28;1021;-64
2022/10/19 04:43:29;;;;;;;;;;;;;;;6.65;57.49;95711.13;5034984;28;1207;-63
2022/10/19 04:45:55;;;;;;;;;;;;;;;6.63;57.12;95709.59;5035047;28;1073;-64
2022/10/19 04:48:21;;;;;;;;;;;;;;;6.58;57.69;95714.41;5050514;28;1004;-64
2022/10/19 04:50:47;;;;;;;;;;;;;;;6.38;58.38;95706.22;5035065;28;1910;-64
2022/10/19 04:53:13;;;;;;;;;;;;;;;6.38;58.46;95714.19;5034989;28;1029;-64
2022/10/19 04:55:40;;;;;;;;;;;;;;;6.56;58.10;95706.56;5034951;28;989;-64
2022/10/19 04:58:06;;;;;;;;;;;;;;;6.53;57.90;95717.44;5034798;28;1041;-64
2022/10/19 05:00:32;;;;;;;;;;;;;;;6.48;58.39;95714.31;5034774;28;914;-64
2022/10/19 05:02:58;;;;;;;;;;;;;;;6.53;57.62;95713.94;5034924;28;1051;-64
2022/10/19 05:05:25;;;;;;;;;;;;;;;6.44;58.25;95713.69;5034630;28;1116;-64
2022/10/19 05:07:51;;;;;;;;;;;;;;;6.49;57.50;95717.78;5034603;28;1275;-65
2022/10/19 05:10:17;;;;;;;;;;;;;;;6.45;57.73;95706.59;5034601;28;1009;-64
2022/10/19 05:12:43;;;;;;;;;;;;;;;6.55;58.00;95712.00;5033446;28;1902;-65
2022/10/19 05:15:09;;;;;;;;;;;;;;;6.56;57.97;95708.38;5034714;28;1040;-64
2022/10/19 05:17:35;;;;;;;;;;;;;;;6.58;57.95;95717.06;5034625;28;1002;-64
2022/10/19 05:20:02;;;;;;;;;;;;;;;6.28;58.72;95715.91;5034562;28;1041;-64
2022/10/19 05:22:28;;;;;;;;;;;;;;;6.01;59.56;95708.25;5034372;28;1065;-64
2022/10/19 05:24:54;;;;;;;;;;;;;;;5.84;60.14;95704.22;5034414;28;1017;-64
2022/10/19 05:27:21;;;;;;;;;;;;;;;5.91;60.76;95713.41;5034068;28;1073;-66
2022/10/19 05:29:47;;;;;;;;;;;;;;;6.13;60.29;95714.41;5034213;28;1054;-66
2022/10/19 05:32:13;;;;;;;;;;;;;;;6.24;60.14;95709.97;5034213;28;1906;-66
2022/10/19 05:34:39;;;;;;;;;;;;;;;6.26;60.36;95712.53;5034271;28;1052;-66
2022/10/19 05:37:05;;;;;;;;;;;;;;;6.26;60.70;95707.22;5032964;28;1728;-64
2022/10/19 05:39:31;;;;;;;;;;;;;;;6.37;60.85;95707.19;5034030;28;1056;-64
2022/10/19 05:41:57;;;;;;;;;;;;;;;6.50;60.95;95709.72;5033981;28;1042;-64
2022/10/19 05:44:23;;;;;;;;;;;;;;;6.67;60.45;95710.19;5034152;28;994;-64
2022/10/19 05:46:50;;;;;;;;;;;;;;;6.70;60.71;95708.13;5033882;28;1136;-64
2022/10/19 05:49:17;;;;;;;;;;;;;;;6.69;60.96;95711.72;5033802;28;1050;-64
2022/10/19 05:51:43;;;;;;;;;;;;;;;6.79;61.46;95710.03;5033952;28;1915;-64
2022/10/19 05:54:09;;;;;;;;;;;;;;;6.96;61.09;95706.00;5033816;28;1001;-64
2022/10/19 05:56:36;;;;;;;;;;;;;;;7.15;61.12;95707.13;5034247;28;1072;-65
2022/10/19 05:59:04;;;;;;;;;;;;;;;7.35;60.96;95713.47;5033758;28;1124;-65
2022/10/19 06:01:30;;;;;;;;;;;;;;;7.41;60.86;95704.97;5032628;28;1013;-64
2022/10/19 06:03:57;;;;;;;;;;;;;;;7.37;61.31;95709.72;5033733;28;1042;-65
2022/10/19 06:06:24;;;;;;;;;;;;;;;7.51;60.92;95700.59;5033624;28;1046;-65
2022/10/19 06:08:51;;;;;;;;;;;;;;;7.70;60.63;95707.00;5033563;28;1154;-64
2022/10/19 06:11:18;;;;;;;;;;;;;;;7.74;60.87;95709.28;5033356;28;1961;-65
2022/10/19 06:13:45;;;;;;;;;;;;;;;7.92;60.27;95709.53;5033358;28;1074;-65
2022/10/19 06:16:12;;;;;;;;;;;;;;;8.02;60.04;95714.91;5033401;28;1109;-65
2022/10/19 06:18:38;;;;;;;;;;;;;;;8.12;60.05;95720.28;5033476;28;1116;-65
2022/10/19 06:21:06;;;;;;;;;;;;;;;8.15;60.63;95725.38;5033421;28;1054;-64
2022/10/19 06:23:32;;;;;;;;;;;;;;;8.24;60.56;95719.25;5033277;28;1140;-65
2022/10/19 06:26:01;;;;;;;;;;;;;;;8.31;60.71;95723.06;5033293;28;961;-65
2022/10/19 06:28:27;;;;;;;;;;;;;;;8.44;61.19;95717.53;5033524;28;1021;-65
2022/10/19 06:30:53;;;;;;;;;;;;;;;8.53;60.47;95710.56;5032168;28;2015;-65
2022/10/19 06:33:19;;;;;;;;;;;;;;;8.60;60.57;95715.22;5033323;28;1037;-65
2022/10/19 06:35:45;;;;;;;;;;;;;;;8.65;60.51;95717.50;5033281;28;1136;-64
2022/10/19 06:38:12;;;;;;;;;;;;;;;8.71;60.64;95716.09;5033122;28;1108;-65
2022/10/19 06:40:38;;;;;;;;;;;;;;;8.74;60.58;95721.16;5033152;28;1231;-65
2022/10/19 06:43:05;;;;;;;;;;;;;;;8.85;60.80;95723.72;5033421;28;1042;-64
2022/10/19 06:45:31;;;;;;;;;;;;;;;8.95;60.52;95731.72;5033236;28;1041;-65
2022/10/19 06:47:58;;;;;;;;;;;;;;;9.02;60.71;95732.03;5033283;28;1080;-65
2022/10/19 06:50:24;;;;;;;;;;;;;;;9.07;60.46;95727.97;5032978;28;1104;-65
2022/10/19 06:52:50;;;;;;;;;;;;;;;9.16;60.89;95720.94;5048262;28;1894;-65
2022/10/19 06:55:16;;;;;;;;;;;;;;;9.20;60.10;95719.72;5032980;28;997;-65
2022/10/19 06:57:43;;;;;;;;;;;;;;;9.25;60.73;95732.63;5033224;28;1008;-65
2022/10/19 07:00:10;;;;;;;;;;;;;;;9.24;60.87;95718.47;5033327;28;974;-65
2022/10/19 07:02:36;;;;;;;;;;;;;;;9.25;60.42;95727.28;5032880;28;1204;-65
2022/10/19 07:05:02;;;;;;;;;;;;;;;9.27;61.05;95717.31;5033116;28;960;-65
2022/10/19 07:07:28;;;;;;;;;;;;;;;9.37;60.33;95710.16;5032806;28;1205;-65
2022/10/19 07:09:54;;;;;;;;;;;;;;;9.40;60.39;95707.22;5032868;28;1038;-64
2022/10/19 07:12:20;;;;;;;;;;;;;;;9.53;58.90;95696.25;5032712;28;1973;-65
2022/10/19 07:14:46;;;;;;;;;;;;;;;9.61;59.05;95698.22;5032636;28;1251;-65
2022/10/19 07:17:12;;;;;;;;;;;;;;;9.61;58.94;95687.53;5032884;28;1026;-65
2022/10/19 07:19:38;;;;;;;;;;;;;;;9.69;60.43;95685.00;5032956;28;1044;-64
2022/10/19 07:22:04;;;;;;;;;;;;;;;9.85;60.29;95685.25;5032768;28;1149;-64
2022/10/19 07:24:31;;;;;;;;;;;;;;;10.03;59.72;95680.00;5032667;28;1040;-64
2022/10/19 07:26:57;;;;;;;;;;;;;;;10.22;59.34;95691.63;5033167;28;1009;-65
2022/10/19 07:29:23;;;;;;;;;;;;;;;10.38;60.08;95683.00;5032810;28;1002;-64
2022/10/19 07:31:49;;;;;;;;;;;;;;;10.44;59.83;95685.97;5032706;28;1898;-64
2022/10/19 07:34:15;;;;;;;;;;;;;;;10.54;59.47;95683.25;5032725;28;981;-64
2022/10/19 07:36:44;;;;;;;;;;;;;;;10.72;60.13;95681.47;5035715;28;1092;-65
2022/10/19 07:39:12;;;;;;;;;;;;;;;10.86;59.52;95687.31;5036160;28;1013;-65
2022/10/19 07:41:38;;;;;;;;;;;;;;;10.98;59.01;95678.06;5036319;28;1034;-64
2022/10/19 07:44:04;;;;;;;;;;;;;;;11.05;58.37;95667.59;5036256;28;1066;-64
2022/10/19 07:46:32;;;;;;;;;;;;;;;11.11;58.26;95667.81;5036064;28;1042;-64
2022/10/19 07:48:59;;;;;;;;;;;;;;;11.24;58.56;95674.66;5036261;28;1039;-64
2022/10/19 07:51:25;;;;;;;;;;;;;;;11.36;58.43;95669.91;5035844;28;1984;-65
2022/10/19 07:53:51;;;;;;;;;;;;;;;11.46;57.85;95662.66;5036353;28;1245;-63
2022/10/19 07:56:19;;;;;;;;;;;;;;;11.60;57.54;95662.09;5036376;28;1036;-65
2022/10/19 07:58:46;;;;;;;;;;;;;;;11.66;57.27;95653.44;5036095;28;974;-64
2022/10/19 08:01:14;;;;;;;;;;;;;;;11.80;57.23;95649.38;5036062;28;1044;-64
2022/10/19 08:03:41;;;;;;;;;;;;;;;11.95;57.12;95647.00;5035879;28;1029;-64
2022/10/19 08:53:51;;;;;;;;;;;;;;;15.84;49.33;95584.38;5144456;27;1307;-65
2022/10/19 08:56:17;;;;;;;;;;;;;;;16.20;48.05;95576.41;5111016;28;1059;-65
2022/10/19 08:58:43;;;;;;;;;;;;;;;16.54;47.38;95585.78;5113071;28;1209;-66
2022/10/19 09:01:09;;;;;;;;;;;;;;;16.76;46.50;95583.16;5131231;28;1917;-66
2022/10/19 09:03:49;;;;;;;;;;;;;;;16.96;45.87;95575.31;5131556;28;973;-66
2022/10/19 09:06:22;;;;;;;;;;;;;;;17.22;45.80;95573.94;5131386;27;1074;-66
2022/10/19 09:08:53;;;;;;;;;;;;;;;17.47;45.03;95577.06;5131395;27;1007;-66
2022/10/19 09:11:22;;;;;;;;;;;;;;;17.69;44.53;95580.59;5131154;27;1123;-66
2022/10/19 09:13:49;;;;;;;;;;;;;;;17.91;44.07;95576.06;5131389;27;1176;-65
2022/10/19 09:16:16;;;;;;;;;;;;;;;18.04;43.34;95570.72;5125398;27;1377;-66
2022/10/19 09:18:43;;;;;;;;;;;;;;;18.13;43.62;95577.63;5110609;28;1056;-65
2022/10/19 09:21:19;;;;;;;;;;;;;;;18.14;43.46;95568.50;5110327;28;2005;-65
2022/10/19 09:23:57;;;;;;;;;;;;;;;17.99;43.55;95565.06;5110511;28;1200;-66
2022/10/19 09:26:27;;;;;;;;;;;;;;;17.78;43.85;95562.38;5110423;28;1126;-66
2022/10/19 09:28:57;;;;;;;;;;;;;;;17.47;44.46;95552.75;5110562;28;1031;-66
2022/10/19 09:31:31;;;;;;;;;;;;;;;17.24;43.21;95553.78;5110281;28;1107;-66
2022/10/19 09:34:00;;;;;;;;;;;;;;;16.92;44.49;95547.00;5110272;28;1036;-66
2022/10/19 09:36:33;;;;;;;;;;;;;;;16.53;45.76;95537.38;5110425;28;964;-66
2022/10/19 09:38:59;;;;;;;;;;;;;;;16.12;47.01;95537.88;5110199;28;1072;-66
2022/10/19 09:41:25;;;;;;;;;;;;;;;15.83;47.85;95533.31;5110188;28;1989;-66
2022/10/19 09:43:53;;;;;;;;;;;;;;;15.56;48.38;95530.19;5110264;28;1038;-66
2022/10/19 09:46:34;;;;;;;;;;;;;;;15.40;48.13;95533.84;5110049;28;1212;-66
2022/10/19 09:49:02;;;;;;;;;;;;;;;15.33;49.31;95531.03;5110341;28;969;-66
2022/10/19 09:51:38;;;;;;;;;;;;;;;15.38;48.09;95527.78;5124557;28;1260;-66
2022/10/19 09:54:04;;;;;;;;;;;;;;;15.32;48.24;95532.06;5120786;27;1115;-66
2022/10/19 09:56:35;;;;;;;;;;;;;;;15.36;47.88;95524.44;5116754;28;1024;-66
2022/10/19 09:59:01;;;;;;;;;;;;;;;15.36;48.76;95514.50;5116633;28;1055;-66
2022/10/19 10:01:31;;;;;;;;;;;;;;;15.45;47.62;95522.53;5116698;28;1906;-66
2022/10/19 10:04:04;;;;;;;;;;;;;;;15.49;48.09;95518.44;5116534;28;1092;-66
2022/10/19 10:06:30;;;;;;;;;;;;;;;15.49;48.19;95513.06;5116604;28;1036;-66
2022/10/19 10:08:57;;;;;;;;;;;;;;;15.49;48.08;95511.19;5116606;28;960;-66
2022/10/19 10:11:26;;;;;;;;;;;;;;;15.52;48.40;95497.38;5116428;28;1052;-65
2022/10/19 10:13:53;;;;;;;;;;;;;;;15.56;46.92;95498.66;5116279;28;961;-66
2022/10/19 10:16:21;;;;;;;;;;;;;;;15.64;47.21;95496.91;5116462;28;1019;-66
2022/10/19 10:18:54;;;;;;;;;;;;;;;15.66;47.33;95487.63;5116302;28;1115;-66
2022/10/19 10:21:30;;;;;;;;;;;;;;;15.68;47.65;95493.66;5116229;28;1914;-66
2022/10/19 10:23:58;;;;;;;;;;;;;;;15.81;46.77;95491.19;5116232;28;1227;-66
2022/10/19 10:26:24;;;;;;;;;;;;;;;15.80;46.45;95481.44;5115996;28;987;-66
2022/10/19 10:28:50;;;;;;;;;;;;;;;15.85;47.15;95475.47;5116322;28;965;-66
2022/10/19 10:31:24;;;;;;;;;;;;;;;15.97;45.99;95474.00;5116147;28;1048;-66
2022/10/19 10:33:53;;;;;;;;;;;;;;;15.98;46.52;95466.75;5115982;28;1088;-66
2022/10/19 10:36:22;;;;;;;;;;;;;;;16.06;46.48;95458.53;5115867;28;1064;-66
2022/10/19 10:38:52;;;;;;;;;;;;;;;16.04;46.41;95452.50;5115891;28;1008;-66
2022/10/19 10:41:22;;;;;;;;;;;;;;;16.01;46.58;95450.16;5115737;28;1984;-65
2022/10/19 10:43:56;;;;;;;;;;;;;;;16.00;46.23;95452.03;5116001;28;968;-66
2022/10/19 10:46:24;;;;;;;;;;;;;;;16.02;46.07;95445.63;5115656;28;1171;-66
2022/10/19 10:48:52;;;;;;;;;;;;;;;16.03;46.43;95442.75;5115811;28;1035;-66
2022/10/19 10:51:31;;;;;;;;;;;;;;;16.24;43.17;95447.38;5102131;28;1283;-67
2022/10/19 10:54:16;;;;;;;;;;;;;;;16.39;43.35;95433.84;5095542;28;1075;-66
2022/10/19 10:56:42;;;;;;;;;;;;;;;16.47;42.92;95431.03;5095325;28;1016;-66
2022/10/19 10:59:31;;;;;;;;;;;;;;;16.50;44.23;95419.00;5094986;28;1063;-66
2022/10/19 11:02:20;;;;;;;;;;;;;;;16.51;43.16;95415.28;5086743;28;1913;-66
2022/10/19 11:04:52;;;;;;;;;;;;;;;16.64;43.32;95401.94;5065451;28;1108;-66
2022/10/19 11:07:20;;;;;;;;;;;;;;;16.69;42.52;95404.88;5094875;28;1119;-66
2022/10/19 11:09:55;;;;;;;;;;;;;;;16.76;42.34;95407.63;5094937;28;1044;-66
2022/10/19 11:12:32;;;;;;;;;;;;;;;16.77;42.12;95403.94;5094683;28;1123;-66
2022/10/19 11:15:17;;;;;;;;;;;;;;;16.77;40.98;95404.75;5095018;28;936;-66
2022/10/19 11:17:50;;;;;;;;;;;;;;;16.84;42.03;95390.50;5094931;28;961;-66
2022/10/19 11:20:16;;;;;;;;;;;;;;;16.97;41.89;95391.44;5094769;28;1016;-66
2022/10/19 11:22:46;;;;;;;;;;;;;;;16.96;41.87;95387.09;5094518;28;1988;-66
2022/10/19 11:25:13;;;;;;;;;;;;;;;16.91;41.86;95384.13;5094848;28;1018;-66
2022/10/19 11:27:39;;;;;;;;;;;;;;;16.97;40.65;95382.50;5094731;28;1143;-66
2022/10/19 11:30:18;;;;;;;;;;;;;;;16.97;41.01;95377.94;5094667;28;1034;-66
2022/10/19 11:32:44;;;;;;;;;;;;;;;16.94;40.50;95375.66;5094626;28;1043;-65
2022/10/19 11:35:16;;;;;;;;;;;;;;;16.89;41.20;95371.84;5094337;28;1016;-66
2022/10/19 11:37:48;;;;;;;;;;;;;;;16.97;38.92;95374.41;5094343;28;1048;-66
2022/10/19 11:40:17;;;;;;;;;;;;;;;17.30;38.00;95374.66;5094496;28;976;-66
2022/10/19 11:43:01;;;;;;;;;;;;;;;17.21;39.51;95370.44;5094333;28;2032;-66
2022/10/19 11:45:44;;;;;;;;;;;;;;;17.18;39.54;95360.03;5094213;28;1029;-66
2022/10/19 11:48:13;;;;;;;;;;;;;;;17.28;38.99;95352.41;5094195;28;1036;-66
2022/10/19 11:50:51;;;;;;;;;;;;;;;17.27;38.21;95352.63;5102331;28;1315;-66
2022/10/19 11:53:27;;;;;;;;;;;;;;;17.42;37.76;95349.81;5114183;28;1241;-66
2022/10/19 11:56:08;;;;;;;;;;;;;;;17.52;38.60;95345.69;5114561;28;1027;-66
2022/10/19 11:58:37;;;;;;;;;;;;;;;17.47;38.14;95353.56;5114614;28;1054;-66
2022/10/19 12:01:21;;;;;;;;;;;;;;;17.44;38.61;95347.72;5114392;28;1898;-66
2022/10/19 12:03:53;;;;;;;;;;;;;;;17.52;37.05;95350.25;5114325;28;1016;-66
2022/10/19 12:06:34;;;;;;;;;;;;;;;17.58;34.67;95354.88;5113991;28;1064;-65
2022/10/19 12:09:04;;;;;;;;;;;;;;;17.57;37.42;95350.50;5114190;28;1008;-65
2022/10/19 12:11:38;;;;;;;;;;;;;;;17.83;35.69;95352.50;5114120;28;1107;-65
2022/10/19 12:14:17;;;;;;;;;;;;;;;17.82;36.35;95350.84;5114156;28;1064;-65
2022/10/19 12:16:46;;;;;;;;;;;;;;;17.83;36.53;95346.25;5113963;28;1031;-66
2022/10/19 12:19:26;;;;;;;;;;;;;;;17.92;34.58;95342.38;5113850;28;1065;-65
2022/10/19 12:21:54;;;;;;;;;;;;;;;18.02;35.60;95340.13;5114301;28;1994;-65
2022/10/19 12:24:22;;;;;;;;;;;;;;;17.91;36.61;95333.44;5114087;28;1324;-66
2022/10/19 12:26:49;;;;;;;;;;;;;;;17.86;36.20;95330.47;5113989;28;1052;-65
2022/10/19 12:29:18;;;;;;;;;;;;;;;17.80;36.47;95316.91;5113942;28;1126;-65
2022/10/19 12:31:45;;;;;;;;;;;;;;;17.84;37.32;95310.06;5113858;28;1072;-64
2022/10/19 12:34:24;;;;;;;;;;;;;;;17.81;36.18;95313.16;5114055;28;975;-66
2022/10/19 12:36:56;;;;;;;;;;;;;;;17.89;35.66;95311.16;5112886;28;1043;-65
2022/10/19 12:39:35;;;;;;;;;;;;;;;17.99;36.81;95308.06;5113685;28;1053;-65
2022/10/19 12:42:16;;;;;;;;;;;;;;;18.01;37.06;95313.28;5113741;28;1902;-65
2022/10/19 12:44:57;;;;;;;;;;;;;;;18.07;36.42;95310.56;5114015;28;999;-65
2022/10/19 12:47:23;;;;;;;;;;;;;;;18.02;35.99;95314.94;5113884;28;1047;-65
2022/10/19 12:49:54;;;;;;;;;;;;;;;18.05;37.64;95303.72;5112732;28;1271;-65
2022/10/19 12:52:41;;;;;;;;;;;;;;;18.07;34.86;95307.88;5093101;28;1220;-66
2022/10/19 12:55:16;;;;;;;;;;;;;;;18.12;35.60;95310.81;5093529;28;976;-65
2022/10/19 12:57:47;;;;;;;;;;;;;;;18.26;34.01;95316.25;5093252;28;1041;-65
2022/10/19 13:00:21;;;;;;;;;;;;;;;18.31;34.49;95311.91;5093327;28;1051;-65
2022/10/19 13:02:55;;;;;;;;;;;;;;;18.35;37.13;95306.91;5093152;28;1906;-65
2022/10/19 13:05:23;;;;;;;;;;;;;;;18.39;34.63;95320.88;5093051;28;1104;-65
2022/10/19 13:07:50;;;;;;;;;;;;;;;18.49;34.46;95313.16;5093162;28;1060;-65
2022/10/19 13:10:18;;;;;;;;;;;;;;;18.43;35.14;95309.41;5093261;28;1146;-65
2022/10/19 13:12:45;;;;;;;;;;;;;;;18.36;35.80;95305.03;5093298;28;1052;-65
2022/10/19 13:15:30;;;;;;;;;;;;;;;18.35;36.29;95304.19;5093081;28;1060;-65
2022/10/19 13:17:56;;;;;;;;;;;;;;;18.27;36.71;95305.22;5093018;28;1045;-65
2022/10/19 13:20:24;;;;;;;;;;;;;;;18.25;36.70;95298.34;5093183;28;1040;-65
2022/10/19 13:22:59;;;;;;;;;;;;;;;18.28;34.89;95297.94;5092980;28;1906;-65
2022/10/19 13:25:26;;;;;;;;;;;;;;;18.30;34.91;95298.56;5092923;28;1262;-65
2022/10/19 13:27:58;;;;;;;;;;;;;;;18.35;34.80;95293.38;5092945;28;1112;-66
2022/10/19 13:30:40;;;;;;;;;;;;;;;18.44;34.71;95296.69;5096709;28;1048;-65
2022/10/19 13:33:28;;;;;;;;;;;;;;;18.51;33.71;95298.38;5096700;28;1060;-65
2022/10/19 13:35:57;;;;;;;;;;;;;;;18.47;33.50;95299.81;5096885;28;1043;-65
2022/10/19 13:38:32;;;;;;;;;;;;;;;18.46;33.60;95300.06;5095459;28;1049;-66
2022/10/19 13:41:03;;;;;;;;;;;;;;;18.41;34.01;95297.94;5096609;28;1048;-66
2022/10/19 13:43:32;;;;;;;;;;;;;;;18.44;33.22;95300.25;5096678;28;2014;-65
2022/10/19 13:45:58;;;;;;;;;;;;;;;18.51;34.19;95292.13;5096568;28;1068;-65
2022/10/19 13:48:33;;;;;;;;;;;;;;;18.50;34.49;95285.88;5096454;28;1135;-66
2022/10/19 13:51:04;;;;;;;;;;;;;;;18.39;34.92;95289.22;5107271;28;1244;-65
2022/10/19 13:53:37;;;;;;;;;;;;;;;18.39;36.53;95282.97;5116639;28;1258;-65
2022/10/19 13:56:23;;;;;;;;;;;;;;;18.46;34.30;95287.34;5116827;28;1097;-65
2022/10/19 13:59:08;;;;;;;;;;;;;;;18.54;35.14;95279.00;5116621;28;1084;-66
2022/10/19 14:01:37;;;;;;;;;;;;;;;18.51;35.38;95274.00;5116542;28;1906;-65
2022/10/19 14:04:03;;;;;;;;;;;;;;;18.53;35.46;95274.66;5116732;28;973;-66